Onweer radar more information blitzortung!


Regen radar more information rain snow radar


Meteo Sauwerd

Weerstation Alkmaar Centrum

Weerstation Luyksgestel

Website Noardburgum

Weerstation Noordbergum



Het weer levert geen direct gevaar op.    Er zijn geen waarschuwingen afgegeven.

METAR rapporten vliegvelden

   
EHLW - Leeuwarden Rnlaf, Netherlands
Afstand tot: W 17 km
Gewijzigd: 23-10-2019 09:00
Bewolking  
Bewolking  
   Wind: ZZO 7.4 km/h
Wind: ZZO 7.4 km/h
Temperatuur: 9°C
Voelt als: 8°C
Dauwpunt: 8°C
Vochtigheid: 94%
Barometer: 1019 hPa
Bewolking: Bewolking
Zicht: meer dan 10 km
Bewolking: Bewolking 15000 ft
EHLW 230700Z AUTO 16004KT 9999 OVC150 09/08 Q1019 BLU 15004KT CAVOK
EHMA - Awg-1 Sea, Netherlands
Afstand tot: N 31 km
Gewijzigd: 23-10-2019 08:55
Gedeeltelijk bewolkt  
Gedeeltelijk bewolkt  
   Wind: Zuiden 25.9 km/h
Wind: Zuiden 25.9 km/h
Temperatuur: 10°C
Voelt als: 7°C
Dauwpunt: 8°C
Vochtigheid: 88%
Barometer: 1019 hPa
Bewolking: Gedeeltelijk bewolkt
Zicht: meer dan 10 km
Bewolking: Gedeeltelijk bewolkt
EHMA 230655Z AUTO 18014KT 9999 NSC 10/08 Q1019 W///H///
EHGG - Groningen/Eelde, Netherlands
Afstand tot: OZO 40 km
Gewijzigd: 23-10-2019 09:25
Nevel, Gedeeltelijk bewolkt  
Nevel, Gedeeltelijk bewolkt  
   Wind: OZO 3.7 km/h
Wind: OZO 3.7 km/h
Temperatuur: 8°C
Dauwpunt: 8°C
Vochtigheid: 100%
Barometer: 1019 hPa
Bewolking: Gedeeltelijk bewolkt
Zicht: 5 km
Bewolking: Gedeeltelijk bewolkt
EHGG 230725Z AUTO 11002KT 5000 BR NSC 08/08 Q1019 TEMPO 4000 BR
EHVL - Vlieland Island, Netherlands
Afstand tot: W 72 km
Gewijzigd: 23-10-2019 09:25
Nevel, Bewolking  
Nevel, Bewolking  
   Wind: Zuiden 13 km/h
Wind: Zuiden 13 km/h
Temperatuur: 11°C
Dauwpunt: 10°C
Vochtigheid: 94%
Barometer: 1019 hPa
Bewolking: Bewolking
Zicht: 5 km
Bewolking: Bewolking 15000 ft
EHVL 230725Z AUTO 17007KT 4700 BR OVC150 11/10 Q1019 GRN
EHMG - L9-Ff-1 Sea, Netherlands
Afstand tot: WNW 81 km
Gewijzigd: 23-10-2019 08:55
Licht bewolkt  
Licht bewolkt  
   Wind: ZW 13 km/h
Wind: ZW 13 km/h
Temperatuur: 13°C
Dauwpunt: 6°C
Vochtigheid: 63%
Barometer: 1019 hPa
Bewolking: Licht bewolkt
Zicht: meer dan 10 km
Bewolking: Licht bewolkt 2900 ft
EHMG 230655Z AUTO 22007KT 9999 FEW029 13/06 Q1019 W///H///
EHKD - De Kooy (navy), Netherlands
Afstand tot: WZW 89 km
Gewijzigd: 23-10-2019 09:25
Nevel, Bewolking  
Nevel, Bewolking  
   Wind: ZZO 9.3 km/h
Wind: ZZO 9.3 km/h
Temperatuur: 9°C
Voelt als: 8°C
Dauwpunt: 9°C
Vochtigheid: 100%
Barometer: 1019 hPa
Bewolking: Bewolking
Zicht: 4 km
Bewolking: Bewolking 10000 ft
EHKD 230725Z AUTO 16005KT 130V190 4100 BR OVC100 09/09 Q1019 GRN 16005KT 3000 BR BKN150

Script ontwikkeld door  Saratoga-weather.org Aangepast voor de template door  Weerstation Leuven

U vindt ons ook hier:

Het Weer Aktueel

UK Metoffice

European Weather Network

Weather Underground

AWEKAS

Citizen Weather Observer Program (CWOP)

HAMweather, WeatherForYou, PWS Weather

Apparatuur in gebruik:

Weerstation
Davis Vantage pro 2

Weerprogramma
Meteobridge

Weercomputer
TP-Link TL-WR703N

Webleverancier
Versio

Davis Vantage pro 2

Meteobridge

TP-Link TL-WR703N

Versio